Flight Track Log - Related Links

Times and Time Zones

All times are in EDT time to prevent confusion due to time zone crossing. See the DAL1527 flight status page for this flight to view local times or setup timezone preferences in your user account.


Time Position Orientation Groundspeed Altitude Reporting Facility
EDT Latitude Longitude Course Direction KTS MPH feet Rate Location/Type
Fri 07:20:08 PM 26.0750 -80.1367 338° Northwest 166 191 1,000  Level Miami Center
Fri 07:20:32 PM 26.0775 -80.1158 82° East 179 206 1,900 1,714 Climbing Miami Center
Fri 07:21:39 PM 26.1061 -80.0542 63° Northeast 253 291 3,600 1,453 Climbing Miami Center
Fri 07:22:40 PM 26.1764 -80.0886 336° Northwest 278 320 5,000 1,023 Climbing Miami Center
Fri 07:23:00 PM 26.4939 -80.3731 335° Northwest  Level Estimated
Fri 07:23:07 PM 26.2050 -80.1056 332° Northwest 279 321 5,100  Level Miami Center
Fri 07:24:00 PM 26.5994 -80.4313 338° Northwest  Level FlightAware Approximate
Fri 07:24:07 PM 26.2603 -80.1556 321° Northwest 307 353 8,300  Level Miami Center
Fri 07:25:00 PM 26.7073 -80.4799 338° Northwest  Level FlightAware Approximate
Fri 07:25:07 PM 26.3261 -80.2108 323° Northwest 289 333 11,100  Level Miami Center
Fri 07:26:07 PM 26.4208 -80.2692 331° Northwest 329 379 13,200 2,400 Climbing Miami Center
Fri 07:27:07 PM 26.5158 -80.3067 341° North 378 435 15,900 2,950 Climbing Miami Center
Fri 07:28:07 PM 26.6317 -80.3519 341° North 399 459 19,100 2,700 Climbing Miami Center
Fri 07:29:07 PM 26.7269 -80.3919 339° North 407 468 21,300 2,500 Climbing Miami Center
Fri 07:30:07 PM 26.8344 -80.4372 339° North 407 468 24,100 2,450 Climbing Miami Center
Fri 07:31:07 PM 26.9378 -80.4800 340° North 402 463 26,200 2,050 Climbing Miami Center
Fri 07:32:07 PM 27.0472 -80.5253 340° North 402 463 28,200 1,350 Climbing Miami Center
Fri 07:33:07 PM 27.1608 -80.5756 339° North 413 475 28,900 1,250 Climbing Miami Center
Fri 07:34:07 PM 27.2786 -80.6236 340° North 431 496 30,700 1,900 Climbing Miami Center
Fri 07:35:07 PM 27.3922 -80.6719 339° North 437 503 32,700 1,950 Climbing Miami Center
Fri 07:36:07 PM 27.5078 -80.7203 340° North 437 503 34,600 1,850 Climbing Miami Center
Fri 07:37:07 PM 27.6192 -80.7661 340° North 437 503 36,400 1,200 Climbing Miami Center
Fri 07:38:07 PM 27.7453 -80.8172 340° North 431 496 37,000 300 Climbing Miami Center
Fri 07:39:07 PM 27.8567 -80.8633 340° North 431 496 37,000  Level Miami Center
Fri 07:40:07 PM 27.9700 -80.9122 339° North 425 489 37,000  Level Miami Center
Fri 07:41:07 PM 28.0833 -80.9608 339° North 425 489 37,000  Level Miami Center
Fri 07:42:07 PM 28.1947 -81.0072 340° North 425 489 37,000  Level Miami Center
Fri 07:43:07 PM 28.3122 -81.0611 338° Northwest 430 495 37,000  Level Miami Center
Fri 07:44:07 PM 28.4236 -81.1056 341° North 430 495 37,000  Level Miami Center
Fri 07:44:59 PM 28.5200 -81.1514 337° Northwest 437 503 37,000  Level Jacksonville Center
Fri 07:45:58 PM 28.6375 -81.2036 339° North 448 516 37,000  Level Jacksonville Center
Fri 07:46:58 PM 28.7508 -81.2514 340° North 443 510 37,000  Level Jacksonville Center
Fri 07:47:59 PM 28.8642 -81.2994 340° North 438 504 37,000  Level Jacksonville Center
Fri 07:48:59 PM 28.9797 -81.3497 339° North 433 498 37,000  Level Jacksonville Center
Fri 07:49:58 PM 29.0950 -81.4003 339° North 437 503 37,000  Level Jacksonville Center
Fri 07:50:59 PM 29.2061 -81.4486 339° North 432 497 37,000  Level Jacksonville Center
Fri 07:51:58 PM 29.3047 -81.4947 338° Northwest 432 497 37,000  Level Jacksonville Center
Fri 07:52:59 PM 29.4200 -81.5431 340° North 432 497 37,000  Level Jacksonville Center
Fri 07:53:59 PM 29.5333 -81.5942 339° North 432 497 37,000  Level Jacksonville Center
Fri 07:54:58 PM 29.6467 -81.6428 340° North 432 497 37,000  Level Jacksonville Center
Fri 07:55:59 PM 29.7619 -81.6939 339° North 432 497 37,000  Level Jacksonville Center
Fri 07:56:59 PM 29.8750 -81.7428 339° North 432 497 37,000  Level Jacksonville Center
Fri 07:57:59 PM 29.9883 -81.7942 339° North 432 497 37,000  Level Jacksonville Center
Fri 07:58:59 PM 30.1139 -81.8456 341° North 431 496 37,000  Level Jacksonville Center
Fri 07:59:58 PM 30.2311 -81.8828 345° North 431 496 37,000  Level Jacksonville Center
Fri 08:00:59 PM 30.3606 -81.8694 North 446 513 37,000  Level Jacksonville Center
Fri 08:01:59 PM 30.4878 -81.8464 North 446 513 37,000  Level Jacksonville Center
Fri 08:02:59 PM 30.6233 -81.8375 North 466 536 37,000  Level Jacksonville Center
Fri 08:03:58 PM 30.7406 -81.8750 345° North 453 521 37,000  Level Jacksonville Center
Fri 08:04:59 PM 30.8497 -81.9344 335° Northwest 430 495 37,000  Level Jacksonville Center
Fri 08:05:58 PM 30.9608 -81.9914 336° Northwest 430 495 37,000  Level Jacksonville Center
Fri 08:06:58 PM 31.0717 -82.0486 336° Northwest 435 501 37,000  Level Jacksonville Center
Fri 08:07:58 PM 31.1850 -82.1106 335° Northwest 435 501 37,000  Level Jacksonville Center
Fri 08:08:58 PM 31.2981 -82.1706 336° Northwest 440 506 37,000 -388 Level Jacksonville Center
Fri 08:13:07 PM 31.7650 -82.4097 336° Northwest 451 519 35,000 -388 Descending Atlanta Center
Fri 08:14:07 PM 31.8806 -82.4711 336° Northwest 451 519 35,000  Level Atlanta Center
Fri 08:15:07 PM 31.9881 -82.5475 329° Northwest 451 519 35,000 -150 Level Atlanta Center
Fri 08:16:07 PM 32.0789 -82.6417 319° Northwest 439 505 34,700 -500 Descending Atlanta Center
Fri 08:17:07 PM 32.1717 -82.7358 319° Northwest 439 505 34,000 -350 Descending Atlanta Center
Fri 08:18:07 PM 32.2644 -82.8328 319° Northwest 439 505 34,000  Level Atlanta Center
Fri 08:19:07 PM 32.3572 -82.9275 319° Northwest 445 512 34,000  Level Atlanta Center
Fri 08:20:07 PM 32.4519 -83.0247 319° Northwest 445 512 34,000 -50 Level Atlanta Center
Fri 08:21:07 PM 32.5508 -83.1222 320° Northwest 445 512 33,900 -1,450 Descending Atlanta Center
Fri 08:22:07 PM 32.6456 -83.2222 318° Northwest 445 512 31,100 -3,400 Descending Atlanta Center
Fri 08:23:07 PM 32.7422 -83.3225 319° Northwest 452 520 27,100 -3,650 Descending Atlanta Center
Fri 08:24:07 PM 32.8408 -83.4233 319° Northwest 457 526 23,800 -2,850 Descending Atlanta Center
Fri 08:25:07 PM 32.9394 -83.5214 320° Northwest 462 532 21,400 -2,800 Descending Atlanta Center
Fri 08:26:07 PM 33.0192 -83.6028 319° Northwest 430 495 18,200 -3,500 Descending Atlanta Center
Fri 08:27:07 PM 33.1050 -83.6992 317° Northwest 395 455 14,400 -2,100 Descending Atlanta Center
Fri 08:28:07 PM 33.1803 -83.7758 320° Northwest 368 423 14,000 -350 Descending Atlanta Center
Fri 08:29:07 PM 33.2453 -83.8575 314° West 346 398 13,700 -950 Descending Atlanta Center
Fri 08:30:07 PM 33.3036 -83.9444 309° West 341 392 12,100 -850 Descending Atlanta Center
Fri 08:31:07 PM 33.3642 -84.0339 309° West 341 392 12,000 -50 Descending Atlanta Center
Fri 08:32:07 PM 33.4228 -84.1186 310° West 341 392 12,000  Level Atlanta Center
Fri 08:33:07 PM 33.4789 -84.1956 311° West 321 369 12,000  Level Atlanta Center
Fri 08:34:07 PM 33.5289 -84.2756 307° West 305 351 12,000 -500 Level Atlanta Center
Fri 08:35:07 PM 33.5372 -84.3653 276° West 282 325 11,000 -1,150 Descending Atlanta Center
Fri 08:36:07 PM 33.5367 -84.4625 270° West 287 330 9,700 -1,749 Descending Atlanta Center
Fri 08:38:26 PM 33.5333 -84.6833 269° West 280 322 5,200 -1,658 Descending Atlanta TRACON
Fri 08:39:26 PM 33.5333 -84.7667 270° West 236 272 4,200 -1,100 Descending Atlanta TRACON
Fri 08:40:26 PM 33.5833 -84.8000 331° Northwest 247 284 3,000 -632 Descending Atlanta TRACON
Fri 08:41:20 PM 33.6167 -84.7333 59° Northeast 218 251 3,000  Level Atlanta TRACON
Fri 08:42:26 PM 33.6167 -84.6667 90° East 183 211 3,000  Level Atlanta TRACON
Fri 08:43:26 PM 33.6167 -84.6000 90° East 179 206 3,000 -150 Level Atlanta TRACON
Fri 08:44:26 PM 33.6167 -84.5500 90° East 160 184 2,700 -500 Descending Atlanta TRACON
Fri 08:45:26 PM 33.6167 -84.5000 90° East 120 138 2,000 -700 Descending Atlanta TRACON
Fri 08:46:26 PM 33.6167 -84.4667 90° East 129 148 1,300 -700 Descending Atlanta TRACON

Login

Don't have an account? Register now (free) for customized features, flight alerts, and more!